Albany, New York
Current Conditions -  °F | °C
As of 6:51 PM on Friday 28 Nov 2014 (Local Time) from KALB Reporting Station
Broken Clouds Broken Clouds  
Wind Chill: -10°   Ceiling: 4900
Heat Index: -4°   Visibility: 10mi
Dew Point: -11°   Wind: 10mph
Humidity: 60%   Direction: 270°W
Pressure: 30.22"   Gusts: NA
Location:  42.65°N, 73.75°W
Report Text: KALB 282351Z 27009KT 10SM BKN049 M04/M11 A3022 RMK AO2 SLP237 4/006 T10391106 11006 21044 51015
Loading
Personal Weather Stations






























Interactive Weather Map New forecast layout! Learn more

10-Day Weather Forecast

Advertisements
Track Severe Weather on mobile